sensor_id;sensor_type;location;lat;lon;timestamp;temperature;humidity
68609;SHT31;55581;46.718;7.690;2022-10-15T00:01:51;14.32;91.45
68609;SHT31;55581;46.718;7.690;2022-10-15T00:04:16;14.34;91.51
68609;SHT31;55581;46.718;7.690;2022-10-15T00:06:46;14.32;90.98
68609;SHT31;55581;46.718;7.690;2022-10-15T00:09:12;14.24;91.63
68609;SHT31;55581;46.718;7.690;2022-10-15T00:11:37;14.17;91.99
68609;SHT31;55581;46.718;7.690;2022-10-15T00:14:06;14.18;93.06
68609;SHT31;55581;46.718;7.690;2022-10-15T00:16:34;14.18;92.75
68609;SHT31;55581;46.718;7.690;2022-10-15T00:19:00;14.31;91.43
68609;SHT31;55581;46.718;7.690;2022-10-15T00:21:29;14.28;91.40
68609;SHT31;55581;46.718;7.690;2022-10-15T00:23:55;14.31;91.94
68609;SHT31;55581;46.718;7.690;2022-10-15T00:26:23;14.31;92.03
68609;SHT31;55581;46.718;7.690;2022-10-15T00:28:53;14.35;92.63
68609;SHT31;55581;46.718;7.690;2022-10-15T00:31:23;14.34;92.59
68609;SHT31;55581;46.718;7.690;2022-10-15T00:33:51;14.31;92.88
68609;SHT31;55581;46.718;7.690;2022-10-15T00:36:19;14.26;92.84
68609;SHT31;55581;46.718;7.690;2022-10-15T00:38:45;14.24;92.73
68609;SHT31;55581;46.718;7.690;2022-10-15T00:41:22;14.15;93.12
68609;SHT31;55581;46.718;7.690;2022-10-15T00:43:54;14.13;93.78
68609;SHT31;55581;46.718;7.690;2022-10-15T00:46:24;14.20;93.30
68609;SHT31;55581;46.718;7.690;2022-10-15T00:51:34;14.25;92.52
68609;SHT31;55581;46.718;7.690;2022-10-15T00:54:02;14.20;93.09
68609;SHT31;55581;46.718;7.690;2022-10-15T00:56:29;14.41;87.31
68609;SHT31;55581;46.718;7.690;2022-10-15T00:58:58;14.58;88.18
68609;SHT31;55581;46.718;7.690;2022-10-15T01:01:23;14.62;89.11
68609;SHT31;55581;46.718;7.690;2022-10-15T01:03:53;14.62;89.68
68609;SHT31;55581;46.718;7.690;2022-10-15T01:06:19;14.53;90.08
68609;SHT31;55581;46.718;7.690;2022-10-15T01:08:46;14.43;90.81
68609;SHT31;55581;46.718;7.690;2022-10-15T01:31:43;14.68;88.73
68609;SHT31;55581;46.718;7.690;2022-10-15T01:34:23;14.72;89.76
68609;SHT31;55581;46.718;7.690;2022-10-15T01:36:58;14.66;89.92
68609;SHT31;55581;46.718;7.690;2022-10-15T01:39:41;14.56;90.61
68609;SHT31;55581;46.718;7.690;2022-10-15T01:42:15;14.38;91.93
68609;SHT31;55581;46.718;7.690;2022-10-15T01:44:47;14.31;92.90
68609;SHT31;55581;46.718;7.690;2022-10-15T01:47:23;14.21;93.16
68609;SHT31;55581;46.718;7.690;2022-10-15T01:49:52;14.29;92.04
68609;SHT31;55581;46.718;7.690;2022-10-15T01:52:25;14.42;90.86
68609;SHT31;55581;46.718;7.690;2022-10-15T01:54:52;14.43;90.25
68609;SHT31;55581;46.718;7.690;2022-10-15T01:57:22;14.48;89.34
68609;SHT31;55581;46.718;7.690;2022-10-15T01:59:49;14.55;90.81
68609;SHT31;55581;46.718;7.690;2022-10-15T02:02:15;14.42;91.61
68609;SHT31;55581;46.718;7.690;2022-10-15T02:04:41;14.34;91.76
68609;SHT31;55581;46.718;7.690;2022-10-15T02:17:44;14.36;91.03
68609;SHT31;55581;46.718;7.690;2022-10-15T02:23:25;14.32;91.40
68609;SHT31;55581;46.718;7.690;2022-10-15T02:25:54;14.26;91.41
68609;SHT31;55581;46.718;7.690;2022-10-15T02:28:24;14.28;92.36
68609;SHT31;55581;46.718;7.690;2022-10-15T02:30:51;14.26;91.96
68609;SHT31;55581;46.718;7.690;2022-10-15T02:33:18;14.32;90.52
68609;SHT31;55581;46.718;7.690;2022-10-15T02:35:46;14.24;91.57
68609;SHT31;55581;46.718;7.690;2022-10-15T02:38:19;14.18;92.28
68609;SHT31;55581;46.718;7.690;2022-10-15T02:40:47;14.14;92.49
68609;SHT31;55581;46.718;7.690;2022-10-15T02:43:18;14.08;92.59
68609;SHT31;55581;46.718;7.690;2022-10-15T02:45:44;14.11;92.55
68609;SHT31;55581;46.718;7.690;2022-10-15T02:48:10;14.01;92.98
68609;SHT31;55581;46.718;7.690;2022-10-15T02:50:36;13.96;93.47
68609;SHT31;55581;46.718;7.690;2022-10-15T02:53:03;14.08;92.98
68609;SHT31;55581;46.718;7.690;2022-10-15T02:55:30;14.10;93.08
68609;SHT31;55581;46.718;7.690;2022-10-15T02:57:58;14.13;93.30
68609;SHT31;55581;46.718;7.690;2022-10-15T03:00:25;14.03;93.45
68609;SHT31;55581;46.718;7.690;2022-10-15T03:02:50;13.98;93.86
68609;SHT31;55581;46.718;7.690;2022-10-15T03:05:15;13.91;94.50
68609;SHT31;55581;46.718;7.690;2022-10-15T03:07:41;13.97;94.07
68609;SHT31;55581;46.718;7.690;2022-10-15T03:10:07;13.93;94.33
68609;SHT31;55581;46.718;7.690;2022-10-15T03:12:32;13.86;93.71
68609;SHT31;55581;46.718;7.690;2022-10-15T03:14:58;13.88;94.12
68609;SHT31;55581;46.718;7.690;2022-10-15T03:17:23;13.93;93.98
68609;SHT31;55581;46.718;7.690;2022-10-15T03:19:49;13.91;93.41
68609;SHT31;55581;46.718;7.690;2022-10-15T03:22:14;13.80;93.65
68609;SHT31;55581;46.718;7.690;2022-10-15T03:24:39;13.70;94.26
68609;SHT31;55581;46.718;7.690;2022-10-15T03:27:05;13.79;93.86
68609;SHT31;55581;46.718;7.690;2022-10-15T03:29:30;13.80;93.39
68609;SHT31;55581;46.718;7.690;2022-10-15T03:31:56;13.71;93.05
68609;SHT31;55581;46.718;7.690;2022-10-15T03:34:21;13.65;93.48
68609;SHT31;55581;46.718;7.690;2022-10-15T03:36:47;13.53;93.80
68609;SHT31;55581;46.718;7.690;2022-10-15T03:39:12;13.45;93.99
68609;SHT31;55581;46.718;7.690;2022-10-15T03:41:39;13.41;94.16
68609;SHT31;55581;46.718;7.690;2022-10-15T03:44:06;13.29;94.07
68609;SHT31;55581;46.718;7.690;2022-10-15T03:46:32;13.16;94.11
68609;SHT31;55581;46.718;7.690;2022-10-15T03:48:59;13.14;95.60
68609;SHT31;55581;46.718;7.690;2022-10-15T03:51:27;13.11;95.53
68609;SHT31;55581;46.718;7.690;2022-10-15T03:53:52;13.07;95.24
68609;SHT31;55581;46.718;7.690;2022-10-15T03:56:23;13.08;95.51
68609;SHT31;55581;46.718;7.690;2022-10-15T03:58:51;13.10;95.18
68609;SHT31;55581;46.718;7.690;2022-10-15T04:01:17;13.11;95.47
68609;SHT31;55581;46.718;7.690;2022-10-15T04:03:43;13.05;94.87
68609;SHT31;55581;46.718;7.690;2022-10-15T04:06:08;12.97;94.36
68609;SHT31;55581;46.718;7.690;2022-10-15T04:08:36;12.90;94.82
68609;SHT31;55581;46.718;7.690;2022-10-15T04:11:04;12.86;94.66
68609;SHT31;55581;46.718;7.690;2022-10-15T04:13:29;12.84;95.30
68609;SHT31;55581;46.718;7.690;2022-10-15T04:15:55;12.79;95.14
68609;SHT31;55581;46.718;7.690;2022-10-15T04:18:20;12.84;96.06
68609;SHT31;55581;46.718;7.690;2022-10-15T04:20:49;12.91;94.84
68609;SHT31;55581;46.718;7.690;2022-10-15T04:23:16;12.97;94.69
68609;SHT31;55581;46.718;7.690;2022-10-15T04:25:49;13.01;94.85
68609;SHT31;55581;46.718;7.690;2022-10-15T04:28:14;13.15;94.36
68609;SHT31;55581;46.718;7.690;2022-10-15T04:30:40;13.22;94.00
68609;SHT31;55581;46.718;7.690;2022-10-15T04:33:05;13.29;93.66
68609;SHT31;55581;46.718;7.690;2022-10-15T04:35:31;13.34;93.47
68609;SHT31;55581;46.718;7.690;2022-10-15T04:37:57;13.39;93.34
68609;SHT31;55581;46.718;7.690;2022-10-15T04:40:23;13.42;93.40
68609;SHT31;55581;46.718;7.690;2022-10-15T04:42:49;13.31;93.48
68609;SHT31;55581;46.718;7.690;2022-10-15T04:45:14;13.19;94.45
68609;SHT31;55581;46.718;7.690;2022-10-15T04:47:42;13.14;94.49
68609;SHT31;55581;46.718;7.690;2022-10-15T04:50:10;13.08;94.99
68609;SHT31;55581;46.718;7.690;2022-10-15T04:52:35;13.07;94.60
68609;SHT31;55581;46.718;7.690;2022-10-15T04:55:01;13.04;94.62
68609;SHT31;55581;46.718;7.690;2022-10-15T04:57:29;13.18;94.17
68609;SHT31;55581;46.718;7.690;2022-10-15T04:59:54;13.26;94.05
68609;SHT31;55581;46.718;7.690;2022-10-15T05:02:20;13.39;93.35
68609;SHT31;55581;46.718;7.690;2022-10-15T05:04:45;13.29;93.64
68609;SHT31;55581;46.718;7.690;2022-10-15T05:07:12;13.34;94.07
68609;SHT31;55581;46.718;7.690;2022-10-15T05:09:37;13.32;93.50
68609;SHT31;55581;46.718;7.690;2022-10-15T05:12:03;13.29;94.12
68609;SHT31;55581;46.718;7.690;2022-10-15T05:14:28;13.31;93.92
68609;SHT31;55581;46.718;7.690;2022-10-15T05:16:53;13.28;93.58
68609;SHT31;55581;46.718;7.690;2022-10-15T05:19:19;13.28;94.06
68609;SHT31;55581;46.718;7.690;2022-10-15T05:21:45;13.42;93.42
68609;SHT31;55581;46.718;7.690;2022-10-15T05:24:10;13.48;92.72
68609;SHT31;55581;46.718;7.690;2022-10-15T05:26:35;13.45;92.62
68609;SHT31;55581;46.718;7.690;2022-10-15T05:29:03;13.46;92.42
68609;SHT31;55581;46.718;7.690;2022-10-15T05:31:30;13.49;92.28
68609;SHT31;55581;46.718;7.690;2022-10-15T05:33:56;13.51;92.28
68609;SHT31;55581;46.718;7.690;2022-10-15T05:38:51;13.55;91.59
68609;SHT31;55581;46.718;7.690;2022-10-15T05:41:25;13.59;91.69
68609;SHT31;55581;46.718;7.690;2022-10-15T05:43:51;13.59;91.70
68609;SHT31;55581;46.718;7.690;2022-10-15T05:46:18;13.42;92.48
68609;SHT31;55581;46.718;7.690;2022-10-15T05:48:48;13.38;92.70
68609;SHT31;55581;46.718;7.690;2022-10-15T05:51:14;13.28;93.55
68609;SHT31;55581;46.718;7.690;2022-10-15T05:53:40;13.19;93.72
68609;SHT31;55581;46.718;7.690;2022-10-15T05:56:08;13.14;93.51
68609;SHT31;55581;46.718;7.690;2022-10-15T05:58:35;13.03;94.11
68609;SHT31;55581;46.718;7.690;2022-10-15T06:01:05;13.07;93.81
68609;SHT31;55581;46.718;7.690;2022-10-15T06:03:31;12.95;93.89
68609;SHT31;55581;46.718;7.690;2022-10-15T06:05:56;12.93;94.17
68609;SHT31;55581;46.718;7.690;2022-10-15T06:08:22;12.88;94.08
68609;SHT31;55581;46.718;7.690;2022-10-15T06:10:48;12.80;94.23
68609;SHT31;55581;46.718;7.690;2022-10-15T06:13:15;12.76;94.91
68609;SHT31;55581;46.718;7.690;2022-10-15T06:15:45;12.77;95.01
68609;SHT31;55581;46.718;7.690;2022-10-15T06:18:12;12.80;95.31
68609;SHT31;55581;46.718;7.690;2022-10-15T06:20:43;12.84;94.76
68609;SHT31;55581;46.718;7.690;2022-10-15T06:23:14;12.84;95.05
68609;SHT31;55581;46.718;7.690;2022-10-15T06:25:40;12.90;95.48
68609;SHT31;55581;46.718;7.690;2022-10-15T06:28:06;12.95;95.53
68609;SHT31;55581;46.718;7.690;2022-10-15T06:30:33;13.01;95.48
68609;SHT31;55581;46.718;7.690;2022-10-15T06:32:59;13.10;95.24
68609;SHT31;55581;46.718;7.690;2022-10-15T06:35:25;13.10;94.96
68609;SHT31;55581;46.718;7.690;2022-10-15T06:37:51;13.15;95.00
68609;SHT31;55581;46.718;7.690;2022-10-15T06:40:17;13.18;94.89
68609;SHT31;55581;46.718;7.690;2022-10-15T06:42:43;13.29;94.72
68609;SHT31;55581;46.718;7.690;2022-10-15T06:45:09;13.31;94.49
68609;SHT31;55581;46.718;7.690;2022-10-15T06:47:35;13.26;94.09
68609;SHT31;55581;46.718;7.690;2022-10-15T06:50:01;13.35;94.35
68609;SHT31;55581;46.718;7.690;2022-10-15T06:52:28;13.36;94.59
68609;SHT31;55581;46.718;7.690;2022-10-15T06:54:53;13.31;94.72
68609;SHT31;55581;46.718;7.690;2022-10-15T06:57:19;13.35;94.93
68609;SHT31;55581;46.718;7.690;2022-10-15T06:59:51;13.35;95.17
68609;SHT31;55581;46.718;7.690;2022-10-15T07:02:17;13.38;95.02
68609;SHT31;55581;46.718;7.690;2022-10-15T07:04:45;13.48;94.75
68609;SHT31;55581;46.718;7.690;2022-10-15T07:07:12;13.65;93.42
68609;SHT31;55581;46.718;7.690;2022-10-15T07:09:41;13.69;93.33
68609;SHT31;55581;46.718;7.690;2022-10-15T07:12:06;13.73;93.98
68609;SHT31;55581;46.718;7.690;2022-10-15T07:14:32;13.71;94.19
68609;SHT31;55581;46.718;7.690;2022-10-15T07:16:58;13.73;94.19
68609;SHT31;55581;46.718;7.690;2022-10-15T07:19:27;13.83;92.95
68609;SHT31;55581;46.718;7.690;2022-10-15T07:21:54;13.88;92.30
68609;SHT31;55581;46.718;7.690;2022-10-15T07:24:19;13.94;92.07
68609;SHT31;55581;46.718;7.690;2022-10-15T07:26:48;13.96;91.72
68609;SHT31;55581;46.718;7.690;2022-10-15T07:29:13;14.03;91.36
68609;SHT31;55581;46.718;7.690;2022-10-15T07:31:41;14.10;91.13
68609;SHT31;55581;46.718;7.690;2022-10-15T07:34:07;14.04;91.72
68609;SHT31;55581;46.718;7.690;2022-10-15T07:36:33;14.06;91.69
68609;SHT31;55581;46.718;7.690;2022-10-15T07:38:58;14.06;91.94
68609;SHT31;55581;46.718;7.690;2022-10-15T07:41:23;14.06;92.41
68609;SHT31;55581;46.718;7.690;2022-10-15T07:43:51;14.13;92.53
68609;SHT31;55581;46.718;7.690;2022-10-15T07:46:20;14.14;92.32
68609;SHT31;55581;46.718;7.690;2022-10-15T07:48:45;14.17;92.14
68609;SHT31;55581;46.718;7.690;2022-10-15T07:51:11;14.25;92.10
68609;SHT31;55581;46.718;7.690;2022-10-15T07:53:39;14.41;89.81
68609;SHT31;55581;46.718;7.690;2022-10-15T07:56:07;14.48;90.30
68609;SHT31;55581;46.718;7.690;2022-10-15T07:58:35;14.51;90.09
68609;SHT31;55581;46.718;7.690;2022-10-15T08:01:03;14.42;90.11
68609;SHT31;55581;46.718;7.690;2022-10-15T08:03:29;14.48;90.25
68609;SHT31;55581;46.718;7.690;2022-10-15T08:05:55;14.49;89.65
68609;SHT31;55581;46.718;7.690;2022-10-15T08:08:21;14.53;89.52
68609;SHT31;55581;46.718;7.690;2022-10-15T08:10:47;14.55;89.63
68609;SHT31;55581;46.718;7.690;2022-10-15T08:13:13;14.61;90.12
68609;SHT31;55581;46.718;7.690;2022-10-15T08:15:43;14.70;90.11
68609;SHT31;55581;46.718;7.690;2022-10-15T08:18:09;14.73;89.38
68609;SHT31;55581;46.718;7.690;2022-10-15T08:20:38;14.86;87.99
68609;SHT31;55581;46.718;7.690;2022-10-15T08:23:04;14.84;90.45
68609;SHT31;55581;46.718;7.690;2022-10-15T08:25:31;14.86;89.23
68609;SHT31;55581;46.718;7.690;2022-10-15T08:27:59;14.96;88.87
68609;SHT31;55581;46.718;7.690;2022-10-15T08:30:24;14.97;90.20
68609;SHT31;55581;46.718;7.690;2022-10-15T08:32:50;15.07;89.50
68609;SHT31;55581;46.718;7.690;2022-10-15T08:35:15;15.10;89.42
68609;SHT31;55581;46.718;7.690;2022-10-15T08:37:41;15.10;89.37
68609;SHT31;55581;46.718;7.690;2022-10-15T08:40:09;15.17;86.68
68609;SHT31;55581;46.718;7.690;2022-10-15T08:42:38;15.25;86.68
68609;SHT31;55581;46.718;7.690;2022-10-15T08:45:21;15.30;87.09
68609;SHT31;55581;46.718;7.690;2022-10-15T08:47:55;15.41;87.11
68609;SHT31;55581;46.718;7.690;2022-10-15T08:53:28;15.52;86.13
68609;SHT31;55581;46.718;7.690;2022-10-15T08:55:59;15.63;86.50
68609;SHT31;55581;46.718;7.690;2022-10-15T08:58:38;15.66;85.92
68609;SHT31;55581;46.718;7.690;2022-10-15T09:01:14;15.78;86.35
68609;SHT31;55581;46.718;7.690;2022-10-15T09:04:01;15.83;86.68
68609;SHT31;55581;46.718;7.690;2022-10-15T09:06:33;15.87;86.50
68609;SHT31;55581;46.718;7.690;2022-10-15T09:14:36;15.87;85.54
68609;SHT31;55581;46.718;7.690;2022-10-15T09:17:31;15.85;84.94
68609;SHT31;55581;46.718;7.690;2022-10-15T09:20:03;15.87;84.83
68609;SHT31;55581;46.718;7.690;2022-10-15T09:22:31;15.66;85.55
68609;SHT31;55581;46.718;7.690;2022-10-15T09:25:00;15.79;83.95
68609;SHT31;55581;46.718;7.690;2022-10-15T09:27:35;15.72;85.03
68609;SHT31;55581;46.718;7.690;2022-10-15T09:32:50;15.73;86.42
68609;SHT31;55581;46.718;7.690;2022-10-15T09:35:23;15.73;85.59
68609;SHT31;55581;46.718;7.690;2022-10-15T09:43:04;15.85;84.66
68609;SHT31;55581;46.718;7.690;2022-10-15T09:45:30;15.79;83.42
68609;SHT31;55581;46.718;7.690;2022-10-15T09:47:59;15.89;84.74
68609;SHT31;55581;46.718;7.690;2022-10-15T09:50:28;16.00;84.56
68609;SHT31;55581;46.718;7.690;2022-10-15T09:58:27;16.52;83.73
68609;SHT31;55581;46.718;7.690;2022-10-15T10:03:25;16.66;84.02
68609;SHT31;55581;46.718;7.690;2022-10-15T10:06:00;16.68;83.06
68609;SHT31;55581;46.718;7.690;2022-10-15T10:08:30;16.75;82.57
68609;SHT31;55581;46.718;7.690;2022-10-15T10:11:03;16.71;80.16
68609;SHT31;55581;46.718;7.690;2022-10-15T10:13:32;16.69;80.63
68609;SHT31;55581;46.718;7.690;2022-10-15T10:16:07;16.83;81.62
68609;SHT31;55581;46.718;7.690;2022-10-15T10:18:34;16.80;81.34
68609;SHT31;55581;46.718;7.690;2022-10-15T10:21:27;16.79;82.58
68609;SHT31;55581;46.718;7.690;2022-10-15T10:23:51;16.82;83.30
68609;SHT31;55581;46.718;7.690;2022-10-15T10:26:17;16.89;82.69
68609;SHT31;55581;46.718;7.690;2022-10-15T10:28:54;16.90;81.27
68609;SHT31;55581;46.718;7.690;2022-10-15T10:31:32;16.93;79.78
68609;SHT31;55581;46.718;7.690;2022-10-15T10:34:13;16.71;82.08
68609;SHT31;55581;46.718;7.690;2022-10-15T10:36:48;16.68;82.28
68609;SHT31;55581;46.718;7.690;2022-10-15T10:39:26;16.69;80.33
68609;SHT31;55581;46.718;7.690;2022-10-15T10:44:34;16.48;82.22
68609;SHT31;55581;46.718;7.690;2022-10-15T10:47:24;16.56;81.78
68609;SHT31;55581;46.718;7.690;2022-10-15T10:49:55;16.52;81.05
68609;SHT31;55581;46.718;7.690;2022-10-15T10:52:30;16.55;81.94
68609;SHT31;55581;46.718;7.690;2022-10-15T10:57:52;16.76;79.49
68609;SHT31;55581;46.718;7.690;2022-10-15T11:00:23;16.71;80.15
68609;SHT31;55581;46.718;7.690;2022-10-15T11:02:51;16.72;80.52
68609;SHT31;55581;46.718;7.690;2022-10-15T11:05:24;16.79;81.81
68609;SHT31;55581;46.718;7.690;2022-10-15T11:10:49;16.55;82.07
68609;SHT31;55581;46.718;7.690;2022-10-15T11:16:41;16.65;82.44
68609;SHT31;55581;46.718;7.690;2022-10-15T11:35:53;16.89;81.21
68609;SHT31;55581;46.718;7.690;2022-10-15T11:47:18;17.06;81.31
68609;SHT31;55581;46.718;7.690;2022-10-15T11:55:58;16.97;81.39
68609;SHT31;55581;46.718;7.690;2022-10-15T11:58:00;17.02;80.42
68609;SHT31;55581;46.718;7.690;2022-10-15T12:00:38;17.10;80.78
68609;SHT31;55581;46.718;7.690;2022-10-15T12:03:11;17.21;80.59
68609;SHT31;55581;46.718;7.690;2022-10-15T12:05:46;17.54;78.24
68609;SHT31;55581;46.718;7.690;2022-10-15T12:08:13;17.79;76.78
68609;SHT31;55581;46.718;7.690;2022-10-15T12:13:37;18.78;77.99
68609;SHT31;55581;46.718;7.690;2022-10-15T12:32:43;20.13;71.48
68609;SHT31;55581;46.718;7.690;2022-10-15T12:37:42;19.64;71.60
68609;SHT31;55581;46.718;7.690;2022-10-15T12:42:53;19.38;70.92
68609;SHT31;55581;46.718;7.690;2022-10-15T12:45:37;19.47;72.78
68609;SHT31;55581;46.718;7.690;2022-10-15T12:50:31;19.74;71.52
68609;SHT31;55581;46.718;7.690;2022-10-15T12:56:12;19.79;69.86
68609;SHT31;55581;46.718;7.690;2022-10-15T12:58:54;20.00;70.51
68609;SHT31;55581;46.718;7.690;2022-10-15T13:11:34;19.33;69.60
68609;SHT31;55581;46.718;7.690;2022-10-15T13:14:10;19.33;71.32
68609;SHT31;55581;46.718;7.690;2022-10-15T13:16:46;19.19;73.04
68609;SHT31;55581;46.718;7.690;2022-10-15T13:19:33;19.37;69.40
68609;SHT31;55581;46.718;7.690;2022-10-15T13:22:02;19.50;68.91
68609;SHT31;55581;46.718;7.690;2022-10-15T13:24:40;19.38;70.15
68609;SHT31;55581;46.718;7.690;2022-10-15T13:27:14;19.34;70.58
68609;SHT31;55581;46.718;7.690;2022-10-15T13:30:02;19.20;70.84
68609;SHT31;55581;46.718;7.690;2022-10-15T13:32:33;19.06;73.20
68609;SHT31;55581;46.718;7.690;2022-10-15T13:35:02;19.12;73.29
68609;SHT31;55581;46.718;7.690;2022-10-15T13:37:31;19.23;73.23
68609;SHT31;55581;46.718;7.690;2022-10-15T13:39:58;19.35;70.88
68609;SHT31;55581;46.718;7.690;2022-10-15T13:42:24;19.44;69.94
68609;SHT31;55581;46.718;7.690;2022-10-15T13:47:29;19.31;72.77
68609;SHT31;55581;46.718;7.690;2022-10-15T13:50:24;19.37;71.98
68609;SHT31;55581;46.718;7.690;2022-10-15T13:55:35;19.61;69.61
68609;SHT31;55581;46.718;7.690;2022-10-15T13:58:51;19.43;69.37
68609;SHT31;55581;46.718;7.690;2022-10-15T14:01:30;19.47;68.54
68609;SHT31;55581;46.718;7.690;2022-10-15T14:03:57;19.62;69.73
68609;SHT31;55581;46.718;7.690;2022-10-15T14:06:26;19.67;68.46
68609;SHT31;55581;46.718;7.690;2022-10-15T14:09:16;19.95;66.39
68609;SHT31;55581;46.718;7.690;2022-10-15T14:11:46;19.85;65.59
68609;SHT31;55581;46.718;7.690;2022-10-15T14:17:02;19.50;67.53
68609;SHT31;55581;46.718;7.690;2022-10-15T14:19:32;19.48;67.60
68609;SHT31;55581;46.718;7.690;2022-10-15T14:22:04;19.57;66.59
68609;SHT31;55581;46.718;7.690;2022-10-15T14:24:35;19.44;66.22
68609;SHT31;55581;46.718;7.690;2022-10-15T14:27:06;19.30;66.57
68609;SHT31;55581;46.718;7.690;2022-10-15T14:29:42;19.14;67.12
68609;SHT31;55581;46.718;7.690;2022-10-15T14:32:45;19.02;68.34
68609;SHT31;55581;46.718;7.690;2022-10-15T14:38:14;19.33;67.15
68609;SHT31;55581;46.718;7.690;2022-10-15T14:40:40;19.20;68.75
68609;SHT31;55581;46.718;7.690;2022-10-15T14:43:17;19.33;69.19
68609;SHT31;55581;46.718;7.690;2022-10-15T14:48:30;19.17;68.37
68609;SHT31;55581;46.718;7.690;2022-10-15T14:51:03;19.14;68.13
68609;SHT31;55581;46.718;7.690;2022-10-15T14:53:35;19.05;69.49
68609;SHT31;55581;46.718;7.690;2022-10-15T14:56:31;19.12;67.11
68609;SHT31;55581;46.718;7.690;2022-10-15T14:58:58;18.91;70.06
68609;SHT31;55581;46.718;7.690;2022-10-15T15:01:24;18.96;68.61
68609;SHT31;55581;46.718;7.690;2022-10-15T15:03:53;19.06;68.42
68609;SHT31;55581;46.718;7.690;2022-10-15T15:06:19;19.10;67.18
68609;SHT31;55581;46.718;7.690;2022-10-15T15:08:45;19.10;67.62
68609;SHT31;55581;46.718;7.690;2022-10-15T15:11:14;18.99;68.44
68609;SHT31;55581;46.718;7.690;2022-10-15T15:13:42;19.00;68.55
68609;SHT31;55581;46.718;7.690;2022-10-15T15:16:11;18.92;69.85
68609;SHT31;55581;46.718;7.690;2022-10-15T15:18:36;18.98;69.15
68609;SHT31;55581;46.718;7.690;2022-10-15T15:21:05;19.17;67.55
68609;SHT31;55581;46.718;7.690;2022-10-15T15:23:31;19.12;68.06
68609;SHT31;55581;46.718;7.690;2022-10-15T15:25:57;18.96;69.76
68609;SHT31;55581;46.718;7.690;2022-10-15T15:28:26;18.81;71.15
68609;SHT31;55581;46.718;7.690;2022-10-15T15:31:00;18.69;72.60
68609;SHT31;55581;46.718;7.690;2022-10-15T15:33:29;18.67;73.36
68609;SHT31;55581;46.718;7.690;2022-10-15T15:36:28;18.61;73.92
68609;SHT31;55581;46.718;7.690;2022-10-15T15:38:47;18.47;72.86
68609;SHT31;55581;46.718;7.690;2022-10-15T15:41:17;18.31;73.58
68609;SHT31;55581;46.718;7.690;2022-10-15T15:43:43;18.47;72.07
68609;SHT31;55581;46.718;7.690;2022-10-15T15:46:11;18.43;72.10
68609;SHT31;55581;46.718;7.690;2022-10-15T15:48:39;18.47;72.31
68609;SHT31;55581;46.718;7.690;2022-10-15T15:51:21;18.45;71.98
68609;SHT31;55581;46.718;7.690;2022-10-15T15:53:49;18.41;72.23
68609;SHT31;55581;46.718;7.690;2022-10-15T15:56:15;18.37;70.82
68609;SHT31;55581;46.718;7.690;2022-10-15T15:58:41;18.24;72.22
68609;SHT31;55581;46.718;7.690;2022-10-15T16:01:08;18.17;73.60
68609;SHT31;55581;46.718;7.690;2022-10-15T16:03:33;17.89;74.99
68609;SHT31;55581;46.718;7.690;2022-10-15T16:05:59;17.79;74.96
68609;SHT31;55581;46.718;7.690;2022-10-15T16:08:24;17.61;74.88
68609;SHT31;55581;46.718;7.690;2022-10-15T16:10:49;17.38;79.28
68609;SHT31;55581;46.718;7.690;2022-10-15T16:13:15;17.32;79.51
68609;SHT31;55581;46.718;7.690;2022-10-15T16:15:42;17.00;81.23
68609;SHT31;55581;46.718;7.690;2022-10-15T16:18:08;16.84;81.86
68609;SHT31;55581;46.718;7.690;2022-10-15T16:20:34;16.68;82.10
68609;SHT31;55581;46.718;7.690;2022-10-15T16:23:04;16.48;83.38
68609;SHT31;55581;46.718;7.690;2022-10-15T16:25:29;16.47;82.91
68609;SHT31;55581;46.718;7.690;2022-10-15T16:27:54;16.41;82.99
68609;SHT31;55581;46.718;7.690;2022-10-15T16:30:21;16.40;82.87
68609;SHT31;55581;46.718;7.690;2022-10-15T16:32:47;16.31;83.43
68609;SHT31;55581;46.718;7.690;2022-10-15T16:35:12;16.13;84.76
68609;SHT31;55581;46.718;7.690;2022-10-15T16:37:40;15.97;84.46
68609;SHT31;55581;46.718;7.690;2022-10-15T16:40:06;15.94;84.22
68609;SHT31;55581;46.718;7.690;2022-10-15T16:42:31;15.87;85.24
68609;SHT31;55581;46.718;7.690;2022-10-15T16:44:56;15.80;86.38
68609;SHT31;55581;46.718;7.690;2022-10-15T16:47:25;15.67;86.45
68609;SHT31;55581;46.718;7.690;2022-10-15T16:49:50;15.61;86.12
68609;SHT31;55581;46.718;7.690;2022-10-15T16:52:16;15.61;85.88
68609;SHT31;55581;46.718;7.690;2022-10-15T16:54:42;15.59;86.79
68609;SHT31;55581;46.718;7.690;2022-10-15T16:57:07;15.59;86.76
68609;SHT31;55581;46.718;7.690;2022-10-15T16:59:33;15.58;85.27
68609;SHT31;55581;46.718;7.690;2022-10-15T17:01:58;15.62;85.57
68609;SHT31;55581;46.718;7.690;2022-10-15T17:04:25;15.63;85.84
68609;SHT31;55581;46.718;7.690;2022-10-15T17:06:50;15.61;85.91
68609;SHT31;55581;46.718;7.690;2022-10-15T17:09:16;15.55;85.70
68609;SHT31;55581;46.718;7.690;2022-10-15T17:11:42;15.44;86.67
68609;SHT31;55581;46.718;7.690;2022-10-15T17:14:14;15.32;87.84
68609;SHT31;55581;46.718;7.690;2022-10-15T17:16:47;15.27;87.89
68609;SHT31;55581;46.718;7.690;2022-10-15T17:19:15;15.24;87.59
68609;SHT31;55581;46.718;7.690;2022-10-15T17:21:40;15.18;87.75
68609;SHT31;55581;46.718;7.690;2022-10-15T17:24:11;15.07;87.81
68609;SHT31;55581;46.718;7.690;2022-10-15T17:26:38;15.03;87.28
68609;SHT31;55581;46.718;7.690;2022-10-15T17:29:06;15.03;87.49
68609;SHT31;55581;46.718;7.690;2022-10-15T17:31:32;14.90;87.22
68609;SHT31;55581;46.718;7.690;2022-10-15T17:34:00;14.87;87.46
68609;SHT31;55581;46.718;7.690;2022-10-15T17:36:27;14.89;87.33
68609;SHT31;55581;46.718;7.690;2022-10-15T17:38:57;14.84;87.78
68609;SHT31;55581;46.718;7.690;2022-10-15T17:41:25;14.79;88.14
68609;SHT31;55581;46.718;7.690;2022-10-15T17:43:51;14.79;88.26
68609;SHT31;55581;46.718;7.690;2022-10-15T17:46:19;14.70;88.44
68609;SHT31;55581;46.718;7.690;2022-10-15T17:48:48;14.73;88.67
68609;SHT31;55581;46.718;7.690;2022-10-15T17:51:16;14.86;87.87
68609;SHT31;55581;46.718;7.690;2022-10-15T17:53:43;14.98;87.59
68609;SHT31;55581;46.718;7.690;2022-10-15T17:56:19;15.17;86.76
68609;SHT31;55581;46.718;7.690;2022-10-15T17:58:45;15.14;86.77
68609;SHT31;55581;46.718;7.690;2022-10-15T18:01:16;15.04;86.96
68609;SHT31;55581;46.718;7.690;2022-10-15T18:03:42;15.00;87.52
68609;SHT31;55581;46.718;7.690;2022-10-15T18:06:13;14.96;87.78
68609;SHT31;55581;46.718;7.690;2022-10-15T18:08:41;14.90;87.91
68609;SHT31;55581;46.718;7.690;2022-10-15T18:11:09;14.79;87.57
68609;SHT31;55581;46.718;7.690;2022-10-15T18:13:36;14.69;88.10
68609;SHT31;55581;46.718;7.690;2022-10-15T18:16:02;14.56;88.17
68609;SHT31;55581;46.718;7.690;2022-10-15T18:18:27;14.46;88.63
68609;SHT31;55581;46.718;7.690;2022-10-15T18:20:53;14.38;88.68
68609;SHT31;55581;46.718;7.690;2022-10-15T18:23:20;14.31;88.96